createdAt,value
2022-10-08T00:02:10.873Z,76.00
2022-10-08T00:05:43.998Z,62.20
2022-10-08T00:09:32.260Z,74.60
2022-10-08T00:13:01.974Z,70.70
2022-10-08T00:16:43.490Z,68.60
2022-10-08T00:20:30.081Z,70.50
2022-10-08T00:24:11.311Z,63.00
2022-10-08T00:27:30.152Z,62.50
2022-10-08T00:31:17.923Z,68.20
2022-10-08T00:34:49.951Z,61.90
2022-10-08T00:38:20.349Z,58.90
2022-10-08T00:41:48.146Z,58.70
2022-10-08T00:45:47.600Z,57.70
2022-10-08T00:49:35.362Z,57.80
2022-10-08T00:53:05.112Z,57.50
2022-10-08T00:56:09.808Z,69.00
2022-10-08T00:59:42.572Z,57.20
2022-10-08T01:03:07.313Z,57.30
2022-10-08T01:07:08.171Z,60.30
2022-10-08T01:10:55.167Z,51.40
2022-10-08T01:14:45.537Z,55.40
2022-10-08T01:18:31.599Z,61.80
2022-10-08T01:22:19.242Z,56.60
2022-10-08T01:26:04.983Z,63.40
2022-10-08T01:29:55.133Z,70.00
2022-10-08T01:33:42.619Z,62.40
2022-10-08T01:37:30.501Z,62.40
2022-10-08T01:41:02.261Z,64.10
2022-10-08T01:44:52.979Z,55.60
2022-10-08T01:48:40.616Z,60.50
2022-10-08T01:52:31.129Z,55.40
2022-10-08T01:56:16.401Z,61.40
2022-10-08T02:00:18.849Z,57.80
2022-10-08T02:04:05.302Z,60.00
2022-10-08T02:07:55.926Z,62.30
2022-10-08T02:11:43.662Z,62.20
2022-10-08T02:15:31.164Z,53.00
2022-10-08T02:19:21.283Z,58.00
2022-10-08T02:23:04.316Z,58.00
2022-10-08T02:26:51.797Z,63.20
2022-10-08T02:30:37.685Z,59.60
2022-10-08T02:34:36.976Z,59.70
2022-10-08T02:38:18.342Z,56.50
2022-10-08T02:42:06.287Z,55.20
2022-10-08T02:45:56.663Z,73.30
2022-10-08T02:49:35.383Z,79.40
2022-10-08T02:53:23.173Z,68.80
2022-10-08T02:57:25.563Z,83.20
2022-10-08T03:01:13.435Z,84.50
2022-10-08T03:04:49.316Z,61.40
2022-10-08T03:08:36.145Z,56.20
2022-10-08T03:12:23.684Z,58.80
2022-10-08T03:16:11.275Z,67.20
2022-10-08T03:19:49.121Z,60.20
2022-10-08T03:23:36.902Z,58.00
2022-10-08T03:27:24.580Z,58.30
2022-10-08T03:31:12.405Z,57.20
2022-10-08T03:35:00.449Z,60.90
2022-10-08T03:38:48.246Z,66.70
2022-10-08T03:42:36.089Z,58.60
2022-10-08T03:46:26.676Z,60.60
2022-10-08T03:49:53.052Z,65.90
2022-10-08T03:53:39.872Z,67.30
2022-10-08T03:57:27.685Z,62.80
2022-10-08T04:01:15.591Z,55.10
2022-10-08T04:04:53.556Z,62.60
2022-10-08T04:08:31.935Z,66.70
2022-10-08T04:12:13.046Z,63.00
2022-10-08T04:15:53.386Z,65.50
2022-10-08T04:19:40.162Z,56.50
2022-10-08T04:23:28.416Z,79.80
2022-10-08T04:27:08.977Z,80.40
2022-10-08T04:30:57.180Z,75.10
2022-10-08T04:34:45.176Z,65.70
2022-10-08T04:38:31.247Z,63.70
2022-10-08T04:42:19.515Z,69.20
2022-10-08T04:46:07.414Z,74.50
2022-10-08T04:49:55.353Z,85.10
2022-10-08T04:53:42.091Z,73.30
2022-10-08T04:57:29.922Z,71.80
2022-10-08T05:01:10.709Z,80.00
2022-10-08T05:04:58.758Z,67.00
2022-10-08T05:08:46.185Z,78.30
2022-10-08T05:12:23.833Z,82.50
2022-10-08T05:16:11.407Z,66.30
2022-10-08T05:19:45.042Z,64.60
2022-10-08T05:23:11.774Z,55.60
2022-10-08T05:26:59.511Z,62.30
2022-10-08T05:30:47.648Z,61.90
2022-10-08T05:34:35.168Z,63.60
2022-10-08T05:37:58.296Z,74.10
2022-10-08T05:41:57.866Z,68.30
2022-10-08T05:45:46.556Z,63.80
2022-10-08T05:49:36.297Z,65.90
2022-10-08T05:53:24.266Z,64.90
2022-10-08T05:57:10.760Z,66.50
2022-10-08T06:00:51.238Z,65.50
2022-10-08T06:04:38.973Z,55.30
2022-10-08T06:08:01.975Z,68.40
2022-10-08T06:11:42.271Z,54.80
2022-10-08T06:15:31.702Z,57.20
2022-10-08T06:19:20.634Z,58.30
2022-10-08T06:23:08.195Z,62.70
2022-10-08T06:26:36.431Z,56.90
2022-10-08T06:30:17.223Z,49.10
2022-10-08T06:34:04.616Z,43.00
2022-10-08T06:37:44.955Z,47.90
2022-10-08T06:41:32.410Z,44.50
2022-10-08T06:45:10.321Z,47.80
2022-10-08T06:48:58.113Z,44.80
2022-10-08T06:52:46.292Z,41.20
2022-10-08T06:56:25.345Z,43.20
2022-10-08T07:00:13.412Z,49.30
2022-10-08T07:04:01.262Z,43.50
2022-10-08T07:07:48.986Z,41.80
2022-10-08T07:11:21.946Z,47.60
2022-10-08T07:15:09.824Z,42.40
2022-10-08T07:18:57.359Z,41.40
2022-10-08T07:22:46.279Z,41.50
2022-10-08T07:26:34.750Z,43.00
2022-10-08T07:30:16.604Z,37.40
2022-10-08T07:34:04.473Z,34.10
2022-10-08T07:37:52.199Z,33.50
2022-10-08T07:41:41.269Z,37.40
2022-10-08T07:45:28.993Z,39.60
2022-10-08T07:49:20.661Z,34.30
2022-10-08T07:53:09.793Z,36.70
2022-10-08T07:56:57.877Z,33.40
2022-10-08T08:00:46.116Z,32.00
2022-10-08T08:04:35.335Z,31.50
2022-10-08T08:08:24.485Z,29.60
2022-10-08T08:12:13.375Z,29.80
2022-10-08T08:16:01.367Z,32.40
2022-10-08T08:19:50.558Z,31.60
2022-10-08T08:23:39.262Z,32.30
2022-10-08T08:27:28.440Z,27.80
2022-10-08T08:31:16.530Z,29.60
2022-10-08T08:35:04.655Z,30.60
2022-10-08T08:38:53.232Z,33.20
2022-10-08T08:42:50.044Z,36.80
2022-10-08T08:46:37.989Z,30.80
2022-10-08T08:50:34.570Z,26.50
2022-10-08T08:54:22.080Z,26.70
2022-10-08T08:58:10.945Z,24.80
2022-10-08T09:02:01.320Z,28.70
2022-10-08T09:05:49.333Z,24.40
2022-10-08T09:09:44.261Z,26.00
2022-10-08T09:13:33.467Z,30.10
2022-10-08T09:17:21.149Z,24.80
2022-10-08T09:21:09.969Z,28.40
2022-10-08T09:24:57.645Z,27.80
2022-10-08T09:28:53.879Z,28.80
2022-10-08T09:32:43.078Z,21.50
2022-10-08T09:36:30.723Z,20.50
2022-10-08T09:40:24.691Z,36.20
2022-10-08T09:44:06.688Z,25.40
2022-10-08T09:47:56.862Z,19.60
2022-10-08T09:51:53.428Z,23.40
2022-10-08T09:55:50.188Z,24.40
2022-10-08T09:59:41.103Z,27.20
2022-10-08T10:03:37.764Z,27.20
2022-10-08T10:07:25.492Z,22.70
2022-10-08T10:11:15.838Z,22.70
2022-10-08T10:15:06.852Z,19.40
2022-10-08T10:18:57.651Z,19.90
2022-10-08T10:22:57.844Z,22.70
2022-10-08T10:26:51.976Z,20.30
2022-10-08T10:30:38.287Z,21.60
2022-10-08T10:34:31.533Z,20.20
2022-10-08T10:38:19.905Z,20.80
2022-10-08T10:42:10.478Z,20.00
2022-10-08T10:46:17.419Z,21.50
2022-10-08T10:50:05.169Z,17.80
2022-10-08T10:53:53.161Z,20.10
2022-10-08T10:57:49.531Z,21.80
2022-10-08T11:01:43.056Z,19.00
2022-10-08T11:05:29.130Z,21.40
2022-10-08T11:09:23.202Z,22.40
2022-10-08T11:13:29.396Z,22.10
2022-10-08T11:17:22.221Z,18.40
2022-10-08T11:21:11.820Z,16.30
2022-10-08T11:25:20.428Z,17.10
2022-10-08T11:29:03.793Z,16.40
2022-10-08T11:32:26.885Z,22.30
2022-10-08T11:36:21.238Z,16.20
2022-10-08T11:40:20.538Z,17.00
2022-10-08T11:44:17.716Z,19.40
2022-10-08T11:48:16.137Z,16.90
2022-10-08T11:52:19.757Z,17.50
2022-10-08T11:56:07.177Z,18.80
2022-10-08T12:00:13.004Z,17.90
2022-10-08T12:04:06.637Z,15.80
2022-10-08T12:08:11.407Z,17.50
2022-10-08T12:12:15.090Z,15.00
2022-10-08T12:16:05.670Z,18.10
2022-10-08T12:19:51.680Z,18.20
2022-10-08T12:23:42.009Z,18.00
2022-10-08T12:27:27.990Z,11.70
2022-10-08T12:31:25.683Z,17.70
2022-10-08T12:35:13.639Z,14.40
2022-10-08T12:39:30.800Z,10.60
2022-10-08T12:43:21.843Z,11.30
2022-10-08T12:47:07.872Z,9.00
2022-10-08T12:51:16.385Z,18.80
2022-10-08T12:55:04.583Z,14.30
2022-10-08T12:58:53.229Z,18.30
2022-10-08T13:02:41.395Z,15.80
2022-10-08T13:06:34.051Z,11.70
2022-10-08T13:10:22.015Z,9.70
2022-10-08T13:14:14.590Z,11.40
2022-10-08T13:17:58.926Z,8.20
2022-10-08T13:22:04.520Z,13.60
2022-10-08T13:26:10.699Z,12.00
2022-10-08T13:30:01.047Z,15.20
2022-10-08T13:33:51.691Z,12.60
2022-10-08T13:37:31.790Z,11.00
2022-10-08T13:41:19.796Z,14.90
2022-10-08T13:45:07.254Z,12.50
2022-10-08T13:48:55.324Z,14.90
2022-10-08T13:52:43.324Z,11.80
2022-10-08T13:56:31.200Z,12.80
2022-10-08T14:00:19.093Z,15.20
2022-10-08T14:04:06.913Z,10.70
2022-10-08T14:08:00.539Z,9.40
2022-10-08T14:11:48.338Z,9.50
2022-10-08T14:15:36.622Z,12.20
2022-10-08T14:19:24.666Z,14.40
2022-10-08T14:23:12.229Z,8.20
2022-10-08T14:27:02.987Z,10.40
2022-10-08T14:30:53.822Z,14.70
2022-10-08T14:34:41.501Z,10.90
2022-10-08T14:38:29.649Z,10.20
2022-10-08T14:42:17.627Z,11.10
2022-10-08T14:46:06.033Z,12.10
2022-10-08T14:49:55.053Z,14.90
2022-10-08T14:53:42.728Z,11.20
2022-10-08T14:57:23.557Z,9.90
2022-10-08T15:01:11.036Z,6.80
2022-10-08T15:04:59.314Z,22.40
2022-10-08T15:08:47.563Z,11.70
2022-10-08T15:12:35.687Z,13.50
2022-10-08T15:16:23.483Z,9.50
2022-10-08T15:20:11.572Z,9.00
2022-10-08T15:23:52.327Z,10.70
2022-10-08T15:27:40.683Z,9.00
2022-10-08T15:31:28.743Z,14.20
2022-10-08T15:35:17.153Z,14.50
2022-10-08T15:39:05.298Z,6.60
2022-10-08T15:42:48.111Z,5.50
2022-10-08T15:46:42.143Z,13.70
2022-10-08T15:50:30.085Z,6.80
2022-10-08T15:54:18.309Z,11.20
2022-10-08T15:58:05.943Z,13.50
2022-10-08T16:01:55.449Z,7.70
2022-10-08T16:05:43.830Z,6.20
2022-10-08T16:09:32.086Z,13.70
2022-10-08T16:13:20.038Z,8.80
2022-10-08T16:17:07.893Z,8.60
2022-10-08T16:20:52.709Z,5.00
2022-10-08T16:24:41.580Z,11.90
2022-10-08T16:28:29.964Z,11.60
2022-10-08T16:32:07.985Z,10.00
2022-10-08T16:35:55.599Z,6.20
2022-10-08T16:39:44.564Z,5.30
2022-10-08T16:43:12.554Z,7.60
2022-10-08T16:47:03.530Z,5.00
2022-10-08T16:50:27.535Z,8.20
2022-10-08T16:53:55.680Z,7.30
2022-10-08T16:57:42.891Z,6.60
2022-10-08T17:01:31.021Z,7.10
2022-10-08T17:05:19.546Z,4.10
2022-10-08T17:08:49.339Z,6.30
2022-10-08T17:12:37.167Z,8.60
2022-10-08T17:16:25.085Z,10.70
2022-10-08T17:20:12.734Z,5.50
2022-10-08T17:23:59.203Z,7.20
2022-10-08T17:27:40.280Z,8.10
2022-10-08T17:31:28.088Z,5.50
2022-10-08T17:35:16.902Z,11.70
2022-10-08T17:39:04.774Z,12.10
2022-10-08T17:42:51.900Z,8.10
2022-10-08T17:46:48.991Z,8.70
2022-10-08T17:50:37.716Z,9.20
2022-10-08T17:54:25.619Z,12.40
2022-10-08T17:58:13.770Z,13.90
2022-10-08T18:02:08.834Z,17.70
2022-10-08T18:05:56.711Z,17.70
2022-10-08T18:09:45.301Z,15.30
2022-10-08T18:13:23.954Z,8.90
2022-10-08T18:16:53.496Z,11.30
2022-10-08T18:20:07.159Z,12.10
2022-10-08T18:23:50.083Z,19.90
2022-10-08T18:27:39.408Z,21.90
2022-10-08T18:31:28.676Z,12.20
2022-10-08T18:35:00.539Z,21.80
2022-10-08T18:38:20.226Z,20.60
2022-10-08T18:41:42.820Z,23.70
2022-10-08T18:45:21.231Z,19.70
2022-10-08T18:48:33.000Z,19.90
2022-10-08T18:52:21.770Z,22.80
2022-10-08T18:55:34.267Z,18.20
2022-10-08T18:59:15.930Z,17.00
2022-10-08T19:02:44.556Z,13.10
2022-10-08T19:05:59.838Z,12.50
2022-10-08T19:09:47.756Z,14.40
2022-10-08T19:13:20.730Z,13.90
2022-10-08T19:17:08.512Z,14.60
2022-10-08T19:19:59.638Z,13.80
2022-10-08T19:23:47.908Z,11.20
2022-10-08T19:27:12.833Z,15.50
2022-10-08T19:31:00.707Z,14.90
2022-10-08T19:34:15.584Z,16.10
2022-10-08T19:37:55.240Z,18.20
2022-10-08T19:41:24.062Z,10.10
2022-10-08T19:44:20.627Z,13.70
2022-10-08T19:47:53.355Z,17.20
2022-10-08T19:51:09.562Z,15.90
2022-10-08T19:54:11.152Z,14.10
2022-10-08T19:57:50.212Z,19.30
2022-10-08T20:01:04.634Z,21.50
2022-10-08T20:04:52.630Z,22.50
2022-10-08T20:08:14.619Z,22.20
2022-10-08T20:11:48.996Z,25.80
2022-10-08T20:15:28.697Z,25.20
2022-10-08T20:18:57.928Z,26.60
2022-10-08T20:22:47.187Z,24.50
2022-10-08T20:26:01.315Z,29.60
2022-10-08T20:29:51.849Z,25.50
2022-10-08T20:33:10.511Z,25.80
2022-10-08T20:36:58.764Z,26.70
2022-10-08T20:40:46.403Z,23.60
2022-10-08T20:44:06.485Z,22.20
2022-10-08T20:47:35.040Z,22.80
2022-10-08T20:51:14.551Z,24.10
2022-10-08T20:55:01.221Z,20.20
2022-10-08T20:58:29.354Z,21.90
2022-10-08T21:02:20.470Z,14.20
2022-10-08T21:05:49.562Z,17.00
2022-10-08T21:09:18.200Z,18.40
2022-10-08T21:12:46.234Z,12.90
2022-10-08T21:16:33.842Z,11.60
2022-10-08T21:20:22.263Z,13.50
2022-10-08T21:23:34.916Z,17.30
2022-10-08T21:26:52.340Z,15.10
2022-10-08T21:30:39.567Z,11.10
2022-10-08T21:34:27.300Z,12.50
2022-10-08T21:37:56.671Z,12.30
2022-10-08T21:41:36.601Z,13.50
2022-10-08T21:45:17.046Z,13.50
2022-10-08T21:48:39.235Z,11.40
2022-10-08T21:52:15.628Z,15.40
2022-10-08T21:55:37.143Z,14.50
2022-10-08T21:59:20.622Z,13.00
2022-10-08T22:02:53.368Z,9.80
2022-10-08T22:06:33.521Z,9.00
2022-10-08T22:10:04.865Z,9.60
2022-10-08T22:13:21.286Z,10.80
2022-10-08T22:16:38.750Z,8.90
2022-10-08T22:20:26.405Z,10.70
2022-10-08T22:23:47.681Z,13.70
2022-10-08T22:26:57.685Z,12.50
2022-10-08T22:30:32.307Z,11.80
2022-10-08T22:34:19.198Z,10.30
2022-10-08T22:38:06.310Z,11.30
2022-10-08T22:41:34.099Z,14.60
2022-10-08T22:45:01.197Z,9.60
2022-10-08T22:48:29.264Z,11.70
2022-10-08T22:52:16.616Z,14.10
2022-10-08T22:55:36.653Z,8.20
2022-10-08T22:59:23.937Z,10.40
2022-10-08T23:02:49.729Z,8.00
2022-10-08T23:06:30.655Z,5.50
2022-10-08T23:10:18.199Z,16.10
2022-10-08T23:13:18.062Z,8.70
2022-10-08T23:16:32.613Z,8.20
2022-10-08T23:20:22.391Z,10.30
2022-10-08T23:23:42.086Z,11.80
2022-10-08T23:26:59.202Z,8.10
2022-10-08T23:30:43.269Z,8.70
2022-10-08T23:33:45.165Z,7.20
2022-10-08T23:37:12.330Z,6.30
2022-10-08T23:40:40.953Z,8.60
2022-10-08T23:44:21.218Z,9.70
2022-10-08T23:48:07.204Z,6.60
2022-10-08T23:51:34.777Z,9.30
2022-10-08T23:55:21.173Z,15.10
2022-10-08T23:58:28.310Z,9.70
